Time;durP1;ratioP1;P1;durP2;ratioP2;P2;SDS_P1;SDS_P2;PMS_P1;PMS_P2;Temp;Humidity;BMP_temperature;BMP_pressure;BME280_temperature;BME280_humidity;BME280_pressure;Samples;Min_cycle;Max_cycle;Signal;HPM_P1;HPM_P2
2022/09/03 00:01:54;;;;;;;5.63;2.93;;;;;;;;;;4945649;28;20205;-75
2022/09/03 00:04:26;;;;;;;4.80;2.80;;;;;;;;;;4950018;28;20228;-75
2022/09/03 00:07:01;;;;;;;4.30;2.80;;;;;;;;;;4943930;28;20288;-75
2022/09/03 00:09:31;;;;;;;7.73;3.03;;;;;;;;;;4948178;28;20202;-74
2022/09/03 00:12:03;;;;;;;6.73;3.20;;;;;;;;;;4950518;28;20240;-75
2022/09/03 00:14:38;;;;;;;7.93;3.17;;;;;;;;;;4945320;28;20221;-75
2022/09/03 00:17:07;;;;;;;6.07;2.63;;;;;;;;;;4947405;28;20221;-74
2022/09/03 00:19:40;;;;;;;5.87;2.90;;;;;;;;;;4949603;28;20201;-74
2022/09/03 00:22:11;;;;;;;4.17;3.10;;;;;;;;;;4944365;28;20215;-75
2022/09/03 00:24:39;;;;;;;4.53;2.70;;;;;;;;;;4949894;28;20211;-75
2022/09/03 00:27:10;;;;;;;10.53;3.17;;;;;;;;;;4949311;28;20569;-75
2022/09/03 00:29:40;;;;;;;4.53;2.77;;;;;;;;;;4944687;28;20210;-75
2022/09/03 00:32:11;;;;;;;6.63;3.43;;;;;;;;;;4950612;28;20249;-75
2022/09/03 00:34:42;;;;;;;5.60;3.00;;;;;;;;;;4950102;28;20304;-75
2022/09/03 00:37:10;;;;;;;6.40;3.23;;;;;;;;;;4953165;28;20877;-75
2022/09/03 00:39:38;;;;;;;4.77;2.97;;;;;;;;;;4954251;28;20206;-75
2022/09/03 00:42:18;;;;;;;7.40;3.40;;;;;;;;;;4945964;28;20207;-75
2022/09/03 00:45:00;;;;;;;8.43;3.13;;;;;;;;;;4948430;28;20229;-75
2022/09/03 00:47:30;;;;;;;6.67;3.27;;;;;;;;;;4953799;28;20747;-75
2022/09/03 00:50:04;;;;;;;6.47;3.00;;;;;;;;;;4945419;28;20210;-75
2022/09/03 00:52:38;;;;;;;4.67;3.10;;;;;;;;;;4950755;28;20210;-75
2022/09/03 00:55:10;;;;;;;6.27;3.57;;;;;;;;;;4947459;28;20804;-75
2022/09/03 00:57:46;;;;;;;9.63;3.03;;;;;;;;;;4951544;28;20309;-75
2022/09/03 01:00:15;;;;;;;5.00;2.83;;;;;;;;;;4948695;28;20577;-75
2022/09/03 01:02:52;;;;;;;5.63;2.60;;;;;;;;;;4951944;28;20214;-75
2022/09/03 01:05:26;;;;;;;5.90;3.17;;;;;;;;;;4944640;28;20313;-75
2022/09/03 01:08:00;;;;;;;6.00;3.33;;;;;;;;;;4945692;28;20233;-75
2022/09/03 01:10:31;;;;;;;5.67;3.13;;;;;;;;;;4946175;28;20202;-75
2022/09/03 01:13:02;;;;;;;4.57;3.10;;;;;;;;;;4945678;28;20209;-75
2022/09/03 01:15:33;;;;;;;9.00;3.37;;;;;;;;;;4948585;28;20699;-75
2022/09/03 01:18:05;;;;;;;3.93;2.90;;;;;;;;;;4948130;28;20229;-75
2022/09/03 01:20:47;;;;;;;4.13;2.77;;;;;;;;;;4959102;28;20266;-75
2022/09/03 01:23:38;;;;;;;8.90;3.20;;;;;;;;;;4960372;28;20239;-75
2022/09/03 01:26:16;;;;;;;5.20;3.00;;;;;;;;;;4954957;28;20649;-75
2022/09/03 01:28:54;;;;;;;5.30;2.80;;;;;;;;;;4943202;28;20226;-75
2022/09/03 01:31:26;;;;;;;5.33;2.93;;;;;;;;;;4939365;28;20576;-75
2022/09/03 01:33:57;;;;;;;7.13;3.00;;;;;;;;;;4945427;28;20206;-75
2022/09/03 01:36:29;;;;;;;4.07;3.10;;;;;;;;;;4950643;28;20232;-75
2022/09/03 01:38:58;;;;;;;6.23;3.20;;;;;;;;;;4949475;28;20221;-75
2022/09/03 01:44:21;;;;;;;6.63;3.03;;;;;;;;;;4951619;28;20233;-75
2022/09/03 01:46:50;;;;;;;6.90;3.50;;;;;;;;;;4948778;28;20607;-75
2022/09/03 01:49:21;;;;;;;7.23;3.33;;;;;;;;;;4948413;28;20216;-75
2022/09/03 01:51:51;;;;;;;4.73;3.00;;;;;;;;;;4950230;28;20669;-75
2022/09/03 01:54:26;;;;;;;4.37;2.87;;;;;;;;;;4952224;28;20207;-75
2022/09/03 01:57:11;;;;;;;7.67;3.20;;;;;;;;;;4952097;28;20231;-75
2022/09/03 01:59:43;;;;;;;6.47;3.37;;;;;;;;;;4937730;28;20205;-75
2022/09/03 02:02:11;;;;;;;5.27;3.13;;;;;;;;;;4947904;28;20237;-75
2022/09/03 02:04:39;;;;;;;5.57;2.83;;;;;;;;;;4946843;28;20605;-75
2022/09/03 02:07:06;;;;;;;4.30;3.17;;;;;;;;;;4947489;28;20619;-75
2022/09/03 02:09:33;;;;;;;7.50;3.20;;;;;;;;;;4950644;28;20214;-74
2022/09/03 02:12:02;;;;;;;8.03;2.80;;;;;;;;;;4950275;28;20213;-75
2022/09/03 02:14:31;;;;;;;7.57;3.23;;;;;;;;;;4945967;28;20645;-74
2022/09/03 02:17:01;;;;;;;4.17;2.80;;;;;;;;;;4951652;28;20598;-75
2022/09/03 02:19:28;;;;;;;6.67;2.93;;;;;;;;;;4947756;28;20297;-75
2022/09/03 02:21:57;;;;;;;4.90;3.20;;;;;;;;;;4946482;28;20225;-75
2022/09/03 02:24:24;;;;;;;3.63;2.90;;;;;;;;;;4950185;28;20326;-75
2022/09/03 02:26:52;;;;;;;5.73;2.83;;;;;;;;;;4948747;28;20234;-75
2022/09/03 02:29:19;;;;;;;6.90;3.20;;;;;;;;;;4951591;28;20207;-75
2022/09/03 02:31:46;;;;;;;3.93;2.80;;;;;;;;;;4945411;28;20210;-75
2022/09/03 02:34:14;;;;;;;4.80;3.30;;;;;;;;;;4949704;28;20203;-75
2022/09/03 02:36:44;;;;;;;6.57;3.07;;;;;;;;;;4948570;28;20248;-75
2022/09/03 02:39:11;;;;;;;5.57;2.83;;;;;;;;;;4947845;28;20214;-75
2022/09/03 02:41:39;;;;;;;5.17;3.07;;;;;;;;;;4948682;28;20561;-75
2022/09/03 02:44:07;;;;;;;5.80;3.03;;;;;;;;;;4948297;28;20222;-75
2022/09/03 02:46:36;;;;;;;5.27;3.27;;;;;;;;;;4948430;28;20238;-75
2022/09/03 02:49:03;;;;;;;6.67;2.73;;;;;;;;;;4945104;28;20649;-75
2022/09/03 02:51:35;;;;;;;8.53;3.10;;;;;;;;;;4946756;28;20219;-75
2022/09/03 02:54:02;;;;;;;5.30;2.83;;;;;;;;;;4945505;28;20673;-75
2022/09/03 02:56:29;;;;;;;6.97;3.03;;;;;;;;;;4951349;28;20272;-75
2022/09/03 02:58:57;;;;;;;7.57;2.80;;;;;;;;;;4944847;28;20672;-75
2022/09/03 03:01:24;;;;;;;6.33;3.33;;;;;;;;;;4948608;28;20293;-75
2022/09/03 03:03:51;;;;;;;7.30;3.33;;;;;;;;;;4947965;28;20293;-75
2022/09/03 03:06:19;;;;;;;4.90;3.30;;;;;;;;;;4950498;28;20310;-75
2022/09/03 03:08:48;;;;;;;4.90;3.33;;;;;;;;;;4948532;28;20214;-75
2022/09/03 03:11:17;;;;;;;5.30;3.27;;;;;;;;;;4946645;28;20297;-75
2022/09/03 03:13:44;;;;;;;6.17;3.30;;;;;;;;;;4945593;28;20233;-74
2022/09/03 03:16:12;;;;;;;6.43;3.30;;;;;;;;;;4947376;28;20616;-75
2022/09/03 03:18:39;;;;;;;6.73;3.20;;;;;;;;;;4947898;28;20305;-75
2022/09/03 03:21:07;;;;;;;7.10;3.70;;;;;;;;;;4948808;28;20210;-75
2022/09/03 03:23:34;;;;;;;3.97;3.03;;;;;;;;;;4946550;28;20203;-75
2022/09/03 03:26:03;;;;;;;4.70;3.00;;;;;;;;;;4945614;28;20232;-75
2022/09/03 03:28:32;;;;;;;6.60;3.40;;;;;;;;;;4947959;28;20321;-74
2022/09/03 03:31:00;;;;;;;7.40;3.20;;;;;;;;;;4945137;28;20207;-75
2022/09/03 03:33:27;;;;;;;5.03;3.27;;;;;;;;;;4945760;28;20643;-74
2022/09/03 03:35:54;;;;;;;10.50;3.47;;;;;;;;;;4948141;28;20215;-75
2022/09/03 03:38:21;;;;;;;4.57;3.30;;;;;;;;;;4945753;28;20237;-74
2022/09/03 03:40:48;;;;;;;7.50;3.33;;;;;;;;;;4951369;28;20210;-74
2022/09/03 03:43:17;;;;;;;5.17;3.23;;;;;;;;;;4943270;28;20672;-74
2022/09/03 03:45:44;;;;;;;4.07;3.13;;;;;;;;;;4946746;28;20244;-74
2022/09/03 03:48:11;;;;;;;5.83;3.23;;;;;;;;;;4950478;28;20666;-75
2022/09/03 03:50:38;;;;;;;5.53;3.50;;;;;;;;;;4944962;28;20214;-75
2022/09/03 03:53:05;;;;;;;5.70;3.20;;;;;;;;;;4947076;28;20298;-75
2022/09/03 03:55:32;;;;;;;6.00;3.17;;;;;;;;;;4948586;28;20289;-74
2022/09/03 03:57:59;;;;;;;4.50;3.27;;;;;;;;;;4948148;28;20230;-75
2022/09/03 04:00:28;;;;;;;4.53;3.10;;;;;;;;;;4944797;28;20236;-75
2022/09/03 04:02:55;;;;;;;7.93;3.43;;;;;;;;;;4946804;28;20214;-74
2022/09/03 04:05:22;;;;;;;3.97;2.97;;;;;;;;;;4947593;28;20321;-75
2022/09/03 04:07:49;;;;;;;4.50;3.20;;;;;;;;;;4950173;28;20325;-74
2022/09/03 04:10:17;;;;;;;5.53;3.40;;;;;;;;;;4949143;28;20678;-75
2022/09/03 04:12:44;;;;;;;5.93;3.53;;;;;;;;;;4949544;28;20213;-75
2022/09/03 04:15:11;;;;;;;8.17;3.30;;;;;;;;;;4946606;28;20198;-75
2022/09/03 04:17:40;;;;;;;7.53;3.57;;;;;;;;;;4946660;28;20309;-75
2022/09/03 04:20:07;;;;;;;3.87;2.73;;;;;;;;;;4948877;28;20297;-75
2022/09/03 04:22:34;;;;;;;5.53;3.20;;;;;;;;;;4954412;28;20676;-75
2022/09/03 04:31:09;;;;;;;5.63;3.13;;;;;;;;;;4944319;28;20180;-75
2022/09/03 04:33:38;;;;;;;5.43;3.10;;;;;;;;;;4947815;28;20336;-75
2022/09/03 04:36:06;;;;;;;4.17;2.97;;;;;;;;;;4951778;28;20313;-75
2022/09/03 04:38:33;;;;;;;3.90;2.70;;;;;;;;;;4952080;28;20229;-74
2022/09/03 04:41:00;;;;;;;5.73;3.17;;;;;;;;;;4949032;28;20202;-74
2022/09/03 04:43:28;;;;;;;4.87;2.83;;;;;;;;;;4948155;28;20636;-74
2022/09/03 04:45:59;;;;;;;4.23;2.97;;;;;;;;;;4951842;28;20313;-75
2022/09/03 04:48:26;;;;;;;4.73;3.00;;;;;;;;;;4944023;28;20218;-74
2022/09/03 04:50:55;;;;;;;4.60;3.23;;;;;;;;;;4947742;28;20297;-75
2022/09/03 04:59:30;;;;;;;6.43;3.27;;;;;;;;;;4951603;28;20237;-75
2022/09/03 05:01:57;;;;;;;4.87;3.00;;;;;;;;;;4943515;28;20209;-75
2022/09/03 05:04:24;;;;;;;6.13;2.57;;;;;;;;;;4945989;28;20194;-76
2022/09/03 05:06:53;;;;;;;7.80;2.77;;;;;;;;;;4950880;28;20726;-74
2022/09/03 05:09:20;;;;;;;4.87;3.00;;;;;;;;;;4947645;28;20230;-75
2022/09/03 05:11:50;;;;;;;9.47;3.27;;;;;;;;;;4945051;28;20779;-75
2022/09/03 05:14:18;;;;;;;3.50;2.87;;;;;;;;;;4947219;28;20289;-74
2022/09/03 05:16:45;;;;;;;4.47;2.93;;;;;;;;;;4945806;28;20321;-74
2022/09/03 05:19:12;;;;;;;4.23;2.83;;;;;;;;;;4947101;28;20624;-75
2022/09/03 05:21:39;;;;;;;4.97;2.97;;;;;;;;;;4946503;28;20202;-75
2022/09/03 05:24:10;;;;;;;4.27;2.80;;;;;;;;;;4948843;28;20627;-75
2022/09/03 05:26:38;;;;;;;3.93;3.00;;;;;;;;;;4949859;28;20653;-74
2022/09/03 05:29:06;;;;;;;5.77;3.10;;;;;;;;;;4945434;29;20238;-74
2022/09/03 05:31:34;;;;;;;5.63;3.00;;;;;;;;;;4939117;29;20198;-75
2022/09/03 05:34:02;;;;;;;4.93;2.50;;;;;;;;;;4947674;28;20274;-74
2022/09/03 05:36:30;;;;;;;3.93;2.13;;;;;;;;;;4950269;28;20541;-75
2022/09/03 05:38:58;;;;;;;4.77;2.20;;;;;;;;;;4951290;28;20286;-75
2022/09/03 05:41:27;;;;;;;4.87;2.20;;;;;;;;;;4944056;28;20202;-75
2022/09/03 05:43:57;;;;;;;3.80;2.20;;;;;;;;;;4948934;28;20679;-74
2022/09/03 05:46:30;;;;;;;2.97;2.10;;;;;;;;;;4945296;28;20705;-75
2022/09/03 05:48:57;;;;;;;4.17;1.90;;;;;;;;;;4941837;28;20226;-75
2022/09/03 05:51:24;;;;;;;3.93;2.00;;;;;;;;;;4939352;28;20313;-75
2022/09/03 05:53:54;;;;;;;4.67;1.93;;;;;;;;;;4941165;28;20207;-75
2022/09/03 05:56:22;;;;;;;2.57;1.93;;;;;;;;;;4942668;28;20774;-75
2022/09/03 05:58:51;;;;;;;3.40;1.93;;;;;;;;;;4936785;28;20384;-75
2022/09/03 06:01:20;;;;;;;2.70;1.80;;;;;;;;;;4933287;28;20221;-75
2022/09/03 06:03:48;;;;;;;3.60;1.90;;;;;;;;;;4941898;28;20647;-75
2022/09/03 06:06:16;;;;;;;3.07;2.10;;;;;;;;;;4948724;28;20238;-75
2022/09/03 06:08:44;;;;;;;2.93;1.67;;;;;;;;;;4944012;28;20215;-75
2022/09/03 06:11:12;;;;;;;3.37;1.87;;;;;;;;;;4943999;28;20587;-74
2022/09/03 06:13:39;;;;;;;5.57;1.87;;;;;;;;;;4943362;28;20206;-75
2022/09/03 06:16:08;;;;;;;4.97;1.67;;;;;;;;;;4946227;28;20199;-74
2022/09/03 06:18:35;;;;;;;2.30;1.83;;;;;;;;;;4941398;28;20206;-75
2022/09/03 06:21:03;;;;;;;3.07;1.93;;;;;;;;;;4946492;29;20302;-75
2022/09/03 06:23:31;;;;;;;3.93;1.60;;;;;;;;;;4945325;28;20674;-75
2022/09/03 06:26:02;;;;;;;5.00;1.90;;;;;;;;;;4944515;28;20312;-75
2022/09/03 06:28:29;;;;;;;2.20;1.80;;;;;;;;;;4949414;28;20641;-74
2022/09/03 06:30:58;;;;;;;2.90;1.80;;;;;;;;;;4948284;28;20215;-74
2022/09/03 06:33:29;;;;;;;5.00;1.70;;;;;;;;;;4950234;28;20582;-74
2022/09/03 06:35:59;;;;;;;10.13;2.10;;;;;;;;;;4948789;28;20238;-74
2022/09/03 06:38:28;;;;;;;3.03;2.03;;;;;;;;;;4944664;28;20206;-74
2022/09/03 06:40:55;;;;;;;3.07;2.00;;;;;;;;;;4946867;29;20289;-74
2022/09/03 06:43:23;;;;;;;5.40;2.03;;;;;;;;;;4947455;28;21092;-74
2022/09/03 06:45:54;;;;;;;3.77;2.07;;;;;;;;;;4946816;28;20320;-75
2022/09/03 06:48:21;;;;;;;5.10;2.10;;;;;;;;;;4951087;28;20209;-74
2022/09/03 06:51:00;;;;;;;3.40;1.97;;;;;;;;;;4948154;28;21814;-74
2022/09/03 06:53:27;;;;;;;8.13;2.30;;;;;;;;;;4952479;29;20209;-74
2022/09/03 06:55:55;;;;;;;3.30;2.33;;;;;;;;;;4950003;28;20657;-74
2022/09/03 06:58:23;;;;;;;3.20;2.20;;;;;;;;;;4950068;29;20610;-74
2022/09/03 07:00:52;;;;;;;3.33;2.20;;;;;;;;;;4935191;28;20206;-74
2022/09/03 07:03:19;;;;;;;2.70;2.20;;;;;;;;;;4941463;28;20222;-74
2022/09/03 07:05:47;;;;;;;2.83;1.90;;;;;;;;;;4941284;28;20230;-74
2022/09/03 07:08:15;;;;;;;5.93;1.90;;;;;;;;;;4939346;28;20277;-74
2022/09/03 07:10:46;;;;;;;4.77;2.13;;;;;;;;;;4942221;28;20221;-74
2022/09/03 07:13:13;;;;;;;4.47;2.40;;;;;;;;;;4943811;28;20202;-74
2022/09/03 07:15:41;;;;;;;5.07;2.40;;;;;;;;;;4945558;28;20576;-74
2022/09/03 07:18:08;;;;;;;3.07;2.20;;;;;;;;;;4947971;28;20233;-74
2022/09/03 07:20:35;;;;;;;5.83;2.60;;;;;;;;;;4945524;28;20333;-74
2022/09/03 07:23:02;;;;;;;3.90;2.37;;;;;;;;;;4951188;28;20205;-74
2022/09/03 07:25:31;;;;;;;3.83;2.30;;;;;;;;;;4942217;28;20333;-74
2022/09/03 07:27:58;;;;;;;3.27;2.20;;;;;;;;;;4946699;28;20266;-74
2022/09/03 07:30:26;;;;;;;3.73;2.50;;;;;;;;;;4942102;28;20685;-74
2022/09/03 07:32:53;;;;;;;6.30;2.43;;;;;;;;;;4950990;28;20225;-74
2022/09/03 07:35:24;;;;;;;5.40;2.70;;;;;;;;;;4943489;28;20261;-74
2022/09/03 07:37:52;;;;;;;5.97;2.20;;;;;;;;;;4939411;28;20303;-74
2022/09/03 07:40:19;;;;;;;5.70;2.40;;;;;;;;;;4945804;28;20214;-73
2022/09/03 07:42:48;;;;;;;4.73;2.70;;;;;;;;;;4946231;28;20233;-75
2022/09/03 07:45:15;;;;;;;3.93;2.80;;;;;;;;;;4943265;28;20198;-74
2022/09/03 07:47:51;;;;;;;2.63;2.23;;;;;;;;;;4946220;28;20266;-74
2022/09/03 07:50:18;;;;;;;4.47;2.33;;;;;;;;;;4946523;28;20202;-74
2022/09/03 07:52:47;;;;;;;4.00;2.37;;;;;;;;;;4944971;28;20573;-74
2022/09/03 07:55:14;;;;;;;3.47;2.10;;;;;;;;;;4946948;28;20225;-74
2022/09/03 07:57:41;;;;;;;6.87;2.10;;;;;;;;;;4948497;28;20261;-74
2022/09/03 08:00:11;;;;;;;3.50;1.83;;;;;;;;;;4944338;28;20210;-74
2022/09/03 08:02:39;;;;;;;5.73;2.10;;;;;;;;;;4938192;28;20203;-74
2022/09/03 08:05:06;;;;;;;3.73;2.27;;;;;;;;;;4946239;28;20210;-74
2022/09/03 08:07:34;;;;;;;2.67;1.77;;;;;;;;;;4943146;28;20612;-75
2022/09/03 08:10:01;;;;;;;2.23;1.47;;;;;;;;;;4946638;28;20202;-75
2022/09/03 08:12:28;;;;;;;2.50;1.30;;;;;;;;;;4949095;28;20202;-74
2022/09/03 08:14:57;;;;;;;4.70;1.60;;;;;;;;;;4946029;28;20218;-74
2022/09/03 08:17:25;;;;;;;3.13;1.53;;;;;;;;;;4946646;28;20233;-75
2022/09/03 08:19:53;;;;;;;8.67;1.50;;;;;;;;;;4943951;28;20293;-75
2022/09/03 08:22:21;;;;;;;5.73;1.20;;;;;;;;;;4946384;28;20572;-75
2022/09/03 08:24:49;;;;;;;3.83;1.60;;;;;;;;;;4946958;28;20673;-75
2022/09/03 08:27:16;;;;;;;1.70;1.10;;;;;;;;;;4944501;28;20646;-75
2022/09/03 08:29:45;;;;;;;4.83;1.37;;;;;;;;;;4945941;28;20214;-74
2022/09/03 08:32:12;;;;;;;3.27;1.50;;;;;;;;;;4947681;28;20210;-74
2022/09/03 08:34:41;;;;;;;1.83;1.30;;;;;;;;;;4943919;28;20337;-74
2022/09/03 08:37:11;;;;;;;1.77;1.10;;;;;;;;;;4945073;28;20222;-74
2022/09/03 08:39:38;;;;;;;4.37;1.20;;;;;;;;;;4940408;28;20293;-73
2022/09/03 08:42:20;;;;;;;2.63;1.40;;;;;;;;;;4940500;28;20220;-74
2022/09/03 08:44:49;;;;;;;4.90;1.10;;;;;;;;;;4938197;28;20214;-73
2022/09/03 08:47:19;;;;;;;3.93;1.40;;;;;;;;;;4941727;28;20308;-74
2022/09/03 08:49:50;;;;;;;3.47;1.30;;;;;;;;;;4948745;28;20203;-74
2022/09/03 08:52:23;;;;;;;1.87;1.10;;;;;;;;;;4947910;28;20201;-74
2022/09/03 08:54:51;;;;;;;1.47;1.27;;;;;;;;;;4942762;28;20307;-73
2022/09/03 08:57:19;;;;;;;1.20;1.10;;;;;;;;;;4939420;28;20214;-74
2022/09/03 08:59:47;;;;;;;1.67;1.20;;;;;;;;;;4940074;28;20211;-73
2022/09/03 09:02:24;;;;;;;1.40;1.10;;;;;;;;;;4944053;28;20203;-73
2022/09/03 09:04:57;;;;;;;3.63;1.33;;;;;;;;;;4944198;28;20221;-74
2022/09/03 09:07:30;;;;;;;3.07;1.00;;;;;;;;;;4945767;28;20365;-74
2022/09/03 09:10:01;;;;;;;4.20;1.00;;;;;;;;;;4945962;28;20673;-73
2022/09/03 09:12:33;;;;;;;3.00;1.10;;;;;;;;;;4946232;28;20685;-73
2022/09/03 09:15:12;;;;;;;1.70;1.13;;;;;;;;;;4947785;28;20524;-74
2022/09/03 09:17:58;;;;;;;1.80;1.23;;;;;;;;;;4943993;28;20217;-73
2022/09/03 09:20:32;;;;;;;2.23;1.20;;;;;;;;;;4943932;28;20564;-74
2022/09/03 09:23:01;;;;;;;1.70;1.30;;;;;;;;;;4939944;28;20244;-74
2022/09/03 09:25:30;;;;;;;1.73;1.00;;;;;;;;;;4946069;28;20658;-73
2022/09/03 09:28:00;;;;;;;1.77;1.20;;;;;;;;;;4943675;28;20230;-74
2022/09/03 09:30:27;;;;;;;1.73;1.10;;;;;;;;;;4949143;28;20210;-74
2022/09/03 09:32:54;;;;;;;1.10;0.80;;;;;;;;;;4941338;28;20300;-74
2022/09/03 09:35:22;;;;;;;3.37;1.30;;;;;;;;;;4948786;28;20212;-73
2022/09/03 09:37:51;;;;;;;4.73;1.40;;;;;;;;;;4942652;28;20807;-73
2022/09/03 09:40:26;;;;;;;1.60;1.10;;;;;;;;;;4953890;28;20202;-74
2022/09/03 09:43:03;;;;;;;3.33;1.07;;;;;;;;;;4948516;28;20210;-74
2022/09/03 09:45:31;;;;;;;4.60;1.50;;;;;;;;;;4946376;28;20198;-73
2022/09/03 09:47:58;;;;;;;3.60;1.33;;;;;;;;;;4942818;28;20233;-74
2022/09/03 09:50:25;;;;;;;2.83;1.07;;;;;;;;;;4945919;28;20658;-74
2022/09/03 09:53:03;;;;;;;1.73;1.20;;;;;;;;;;4941959;28;20289;-73
2022/09/03 09:55:31;;;;;;;5.43;1.00;;;;;;;;;;4939690;28;20294;-74
2022/09/03 09:58:05;;;;;;;1.90;1.27;;;;;;;;;;4935879;28;20223;-73
2022/09/03 10:00:36;;;;;;;4.57;1.33;;;;;;;;;;4945085;28;20202;-73
2022/09/03 10:03:07;;;;;;;3.53;1.40;;;;;;;;;;4944107;28;20210;-73
2022/09/03 10:05:36;;;;;;;2.43;1.33;;;;;;;;;;4943982;28;20558;-73
2022/09/03 10:08:06;;;;;;;4.20;1.27;;;;;;;;;;4949113;28;20249;-74
2022/09/03 10:10:36;;;;;;;4.87;1.30;;;;;;;;;;4945657;28;20198;-73
2022/09/03 10:13:08;;;;;;;2.27;1.60;;;;;;;;;;4942441;28;20225;-74
2022/09/03 10:15:38;;;;;;;5.37;1.33;;;;;;;;;;4940896;28;20214;-75
2022/09/03 10:18:10;;;;;;;4.77;1.20;;;;;;;;;;4939377;28;20322;-75
2022/09/03 10:20:40;;;;;;;3.43;1.10;;;;;;;;;;4937736;28;20210;-75
2022/09/03 10:23:16;;;;;;;3.80;1.10;;;;;;;;;;4942319;28;20214;-74
2022/09/03 10:25:55;;;;;;;3.13;1.30;;;;;;;;;;4943398;28;20211;-74
2022/09/03 10:28:25;;;;;;;1.43;1.17;;;;;;;;;;4943207;28;20202;-74
2022/09/03 10:31:04;;;;;;;1.90;1.30;;;;;;;;;;4946640;28;20340;-75
2022/09/03 10:33:35;;;;;;;2.67;1.40;;;;;;;;;;4946839;28;20229;-74
2022/09/03 10:36:09;;;;;;;5.17;1.73;;;;;;;;;;4947295;28;20217;-74
2022/09/03 10:38:38;;;;;;;1.30;1.03;;;;;;;;;;4950976;28;20297;-74
2022/09/03 10:41:09;;;;;;;3.13;1.30;;;;;;;;;;4946994;28;20241;-74
2022/09/03 10:43:55;;;;;;;2.13;1.10;;;;;;;;;;4950405;28;20202;-74
2022/09/03 10:46:26;;;;;;;5.27;1.50;;;;;;;;;;4946012;28;20266;-74
2022/09/03 10:49:12;;;;;;;3.63;1.30;;;;;;;;;;4945045;28;20209;-73
2022/09/03 10:51:42;;;;;;;3.77;1.37;;;;;;;;;;4949106;29;20294;-74
2022/09/03 10:54:31;;;;;;;2.30;1.30;;;;;;;;;;4948418;29;20207;-73
2022/09/03 10:57:04;;;;;;;2.13;1.30;;;;;;;;;;4937944;28;20226;-74
2022/09/03 10:59:38;;;;;;;1.83;1.33;;;;;;;;;;4941347;28;20353;-74
2022/09/03 11:02:16;;;;;;;2.63;1.53;;;;;;;;;;4936161;28;20202;-74
2022/09/03 11:04:48;;;;;;;3.20;1.40;;;;;;;;;;4941743;28;20209;-75
2022/09/03 11:07:17;;;;;;;1.83;1.30;;;;;;;;;;4949455;28;20622;-74
2022/09/03 11:09:47;;;;;;;1.40;1.20;;;;;;;;;;4946707;28;20372;-74
2022/09/03 11:12:21;;;;;;;3.20;1.40;;;;;;;;;;4943744;28;20297;-74
2022/09/03 11:14:52;;;;;;;4.97;1.60;;;;;;;;;;4941221;28;20303;-73
2022/09/03 11:17:22;;;;;;;4.10;1.27;;;;;;;;;;4944059;28;20846;-75
2022/09/03 11:19:51;;;;;;;3.93;1.57;;;;;;;;;;4948680;28;20302;-74
2022/09/03 11:22:21;;;;;;;9.63;1.90;;;;;;;;;;4942491;28;20266;-74
2022/09/03 11:24:52;;;;;;;2.63;1.40;;;;;;;;;;4945229;28;20211;-75
2022/09/03 11:27:27;;;;;;;1.97;1.30;;;;;;;;;;4934877;28;20254;-74
2022/09/03 11:29:59;;;;;;;1.60;1.17;;;;;;;;;;4939683;28;20202;-74
2022/09/03 11:32:29;;;;;;;5.73;1.30;;;;;;;;;;4945964;28;20316;-76
2022/09/03 11:34:56;;;;;;;5.33;1.23;;;;;;;;;;4950354;28;20308;-75
2022/09/03 11:37:25;;;;;;;2.57;1.40;;;;;;;;;;4945530;28;20218;-74
2022/09/03 11:39:56;;;;;;;5.20;1.50;;;;;;;;;;4946981;28;20206;-75
2022/09/03 11:42:31;;;;;;;2.87;1.60;;;;;;;;;;4945083;28;20265;-76
2022/09/03 11:45:14;;;;;;;2.53;1.47;;;;;;;;;;4947408;28;20784;-74
2022/09/03 11:47:43;;;;;;;2.53;1.27;;;;;;;;;;4945937;28;20222;-75
2022/09/03 11:50:19;;;;;;;1.77;1.50;;;;;;;;;;4944932;28;20302;-75
2022/09/03 11:52:47;;;;;;;1.67;1.33;;;;;;;;;;4946721;28;20210;-75
2022/09/03 11:55:25;;;;;;;2.00;1.47;;;;;;;;;;4943807;28;20269;-74
2022/09/03 11:57:53;;;;;;;5.23;1.80;;;;;;;;;;4943817;28;20268;-74
2022/09/03 12:00:23;;;;;;;1.97;1.40;;;;;;;;;;4948535;28;20293;-74
2022/09/03 12:02:53;;;;;;;3.27;1.40;;;;;;;;;;4951038;28;20254;-75
2022/09/03 12:05:24;;;;;;;6.03;1.40;;;;;;;;;;4945022;28;20293;-75
2022/09/03 12:08:03;;;;;;;5.77;1.47;;;;;;;;;;4947954;28;20237;-74
2022/09/03 12:10:37;;;;;;;8.23;1.40;;;;;;;;;;4946198;28;20205;-74
2022/09/03 12:13:23;;;;;;;2.27;1.40;;;;;;;;;;4945190;28;21129;-76
2022/09/03 12:16:00;;;;;;;8.27;1.60;;;;;;;;;;4946991;28;20209;-75
2022/09/03 12:18:30;;;;;;;3.87;1.53;;;;;;;;;;4943731;28;21543;-76
2022/09/03 12:21:04;;;;;;;2.63;1.80;;;;;;;;;;4949551;28;20661;-75
2022/09/03 12:23:32;;;;;;;3.33;1.63;;;;;;;;;;4943844;28;20264;-75
2022/09/03 12:26:02;;;;;;;1.60;1.40;;;;;;;;;;4950948;28;20652;-76
2022/09/03 12:28:32;;;;;;;4.77;1.77;;;;;;;;;;4945736;28;20227;-76
2022/09/03 12:31:20;;;;;;;4.93;1.80;;;;;;;;;;4942360;28;20207;-75
2022/09/03 12:33:48;;;;;;;5.43;1.77;;;;;;;;;;4944618;28;20823;-77
2022/09/03 12:36:16;;;;;;;3.13;1.50;;;;;;;;;;4936263;28;20730;-75
2022/09/03 12:38:43;;;;;;;4.87;1.60;;;;;;;;;;4946902;28;20211;-76
2022/09/03 12:41:26;;;;;;;2.20;1.80;;;;;;;;;;4946905;28;20333;-77
2022/09/03 12:43:53;;;;;;;2.27;1.40;;;;;;;;;;4945187;28;20202;-75
2022/09/03 12:46:24;;;;;;;2.50;1.40;;;;;;;;;;4944862;28;20320;-75
2022/09/03 12:49:02;;;;;;;3.20;1.60;;;;;;;;;;4943594;28;20241;-75
2022/09/03 12:51:32;;;;;;;6.03;1.67;;;;;;;;;;4943892;28;20286;-74
2022/09/03 12:54:00;;;;;;;2.27;1.30;;;;;;;;;;4944919;28;20672;-77
2022/09/03 12:56:31;;;;;;;2.07;1.57;;;;;;;;;;4944283;28;20696;-78
2022/09/03 12:59:00;;;;;;;4.80;1.60;;;;;;;;;;4946477;28;20210;-78
2022/09/03 13:01:30;;;;;;;3.80;1.57;;;;;;;;;;4945779;28;20216;-78
2022/09/03 13:04:02;;;;;;;4.33;1.67;;;;;;;;;;4946134;28;20699;-78
2022/09/03 13:06:32;;;;;;;2.60;1.57;;;;;;;;;;4947597;28;20237;-80
2022/09/03 13:09:01;;;;;;;5.07;1.83;;;;;;;;;;4943502;28;20231;-79
2022/09/03 13:11:29;;;;;;;4.20;1.70;;;;;;;;;;4950374;28;20285;-80
2022/09/03 13:14:01;;;;;;;3.80;1.70;;;;;;;;;;4950257;28;20302;-78
2022/09/03 13:16:48;;;;;;;4.83;1.80;;;;;;;;;;4948180;28;20225;-77
2022/09/03 13:19:19;;;;;;;1.90;1.40;;;;;;;;;;4953896;28;20239;-78
2022/09/03 13:21:49;;;;;;;2.10;1.37;;;;;;;;;;4943173;28;20211;-77
2022/09/03 13:24:34;;;;;;;2.73;1.67;;;;;;;;;;4942783;28;20202;-80
2022/09/03 13:27:07;;;;;;;1.53;1.20;;;;;;;;;;4949931;28;20233;-80
2022/09/03 13:29:53;;;;;;;6.73;1.60;;;;;;;;;;4950654;28;20206;-78
2022/09/03 13:32:29;;;;;;;3.97;1.90;;;;;;;;;;4947126;28;20253;-78
2022/09/03 13:34:58;;;;;;;3.53;1.63;;;;;;;;;;4949646;28;20212;-78
2022/09/03 13:37:27;;;;;;;4.80;1.60;;;;;;;;;;4948377;28;20221;-80
2022/09/03 13:39:56;;;;;;;5.13;1.40;;;;;;;;;;4951452;28;20297;-78
2022/09/03 13:42:28;;;;;;;2.47;1.63;;;;;;;;;;4949442;28;20217;-79
2022/09/03 13:44:57;;;;;;;9.03;1.70;;;;;;;;;;4954072;28;20205;-78
2022/09/03 13:47:29;;;;;;;2.33;1.40;;;;;;;;;;4950360;28;20582;-79
2022/09/03 13:52:47;;;;;;;1.10;1.00;;;;;;;;;;4946582;28;20672;-78
2022/09/03 13:55:18;;;;;;;2.47;1.10;;;;;;;;;;4952538;28;20199;-78
2022/09/03 13:57:48;;;;;;;3.97;1.20;;;;;;;;;;4952756;28;20716;-77
2022/09/03 14:00:23;;;;;;;1.97;1.30;;;;;;;;;;4946280;28;20732;-79
2022/09/03 14:02:54;;;;;;;1.87;1.30;;;;;;;;;;4952157;28;20657;-78
2022/09/03 14:05:31;;;;;;;1.63;1.33;;;;;;;;;;4951867;28;20564;-77
2022/09/03 14:08:07;;;;;;;2.43;1.40;;;;;;;;;;4950732;28;20226;-77
2022/09/03 14:10:38;;;;;;;4.47;1.40;;;;;;;;;;4953633;28;20210;-79
2022/09/03 14:13:11;;;;;;;1.87;1.50;;;;;;;;;;4954480;28;20720;-79
2022/09/03 14:15:44;;;;;;;4.33;1.67;;;;;;;;;;4954975;28;20214;-79
2022/09/03 14:18:14;;;;;;;5.53;1.80;;;;;;;;;;4956771;28;20310;-79
2022/09/03 14:20:44;;;;;;;3.03;1.60;;;;;;;;;;4957422;28;20207;-80
2022/09/03 14:23:21;;;;;;;2.83;1.40;;;;;;;;;;4951060;28;20206;-78
2022/09/03 14:25:52;;;;;;;3.27;1.60;;;;;;;;;;4954514;28;20576;-79
2022/09/03 14:28:28;;;;;;;7.53;1.57;;;;;;;;;;4950816;28;20222;-79
2022/09/03 14:30:58;;;;;;;1.80;1.37;;;;;;;;;;4947705;28;20202;-78
2022/09/03 14:33:32;;;;;;;3.37;1.57;;;;;;;;;;4949308;28;20230;-79
2022/09/03 14:36:07;;;;;;;5.13;1.83;;;;;;;;;;4952631;28;20233;-78
2022/09/03 14:38:41;;;;;;;2.63;1.50;;;;;;;;;;4947012;28;21939;-77
2022/09/03 14:41:19;;;;;;;4.97;1.40;;;;;;;;;;4946380;28;20294;-77
2022/09/03 14:44:07;;;;;;;2.17;1.60;;;;;;;;;;4948690;28;20206;-79
2022/09/03 14:46:42;;;;;;;2.83;1.60;;;;;;;;;;4946225;28;20261;-77
2022/09/03 14:49:24;;;;;;;2.63;1.50;;;;;;;;;;4949506;28;20230;-78
2022/09/03 14:52:00;;;;;;;4.30;1.50;;;;;;;;;;4946419;28;20207;-78
2022/09/03 14:54:41;;;;;;;4.40;1.47;;;;;;;;;;4948045;28;20217;-78
2022/09/03 14:57:18;;;;;;;3.33;1.53;;;;;;;;;;4946050;28;20317;-78
2022/09/03 14:59:51;;;;;;;3.90;1.60;;;;;;;;;;4947488;28;20688;-79
2022/09/03 15:02:39;;;;;;;3.47;1.67;;;;;;;;;;4950040;28;20728;-80
2022/09/03 15:05:10;;;;;;;3.60;1.60;;;;;;;;;;4950227;28;20322;-78
2022/09/03 15:07:43;;;;;;;2.83;1.60;;;;;;;;;;4943210;28;20254;-77
2022/09/03 15:10:15;;;;;;;4.50;1.50;;;;;;;;;;4942407;29;20207;-78
2022/09/03 15:12:44;;;;;;;3.77;1.57;;;;;;;;;;4950136;28;20243;-77
2022/09/03 15:15:14;;;;;;;1.70;1.43;;;;;;;;;;4953141;28;20198;-77
2022/09/03 15:17:47;;;;;;;3.87;1.53;;;;;;;;;;4949289;29;20619;-79
2022/09/03 15:20:21;;;;;;;3.23;1.33;;;;;;;;;;4954041;28;20202;-78
2022/09/03 15:23:03;;;;;;;4.60;1.60;;;;;;;;;;4944233;28;20199;-78